sensor_id;sensor_type;location;lat;lon;timestamp;temperature;humidity
74511;DHT22;62991;50.040;18.400;2024-01-30T00:00:31;2.40;66.40
74511;DHT22;62991;50.040;18.400;2024-01-30T00:03:32;2.50;66.20
74511;DHT22;62991;50.040;18.400;2024-01-30T00:06:32;2.60;65.80
74511;DHT22;62991;50.040;18.400;2024-01-30T00:09:33;2.70;65.50
74511;DHT22;62991;50.040;18.400;2024-01-30T00:12:34;2.60;65.80
74511;DHT22;62991;50.040;18.400;2024-01-30T00:15:35;2.60;65.70
74511;DHT22;62991;50.040;18.400;2024-01-30T00:18:36;2.60;65.60
74511;DHT22;62991;50.040;18.400;2024-01-30T00:21:37;2.60;65.50
74511;DHT22;62991;50.040;18.400;2024-01-30T00:24:37;2.60;65.70
74511;DHT22;62991;50.040;18.400;2024-01-30T00:27:38;2.60;65.70
74511;DHT22;62991;50.040;18.400;2024-01-30T00:30:39;2.60;65.60
74511;DHT22;62991;50.040;18.400;2024-01-30T00:33:40;2.50;65.70
74511;DHT22;62991;50.040;18.400;2024-01-30T00:36:40;2.50;66.00
74511;DHT22;62991;50.040;18.400;2024-01-30T00:39:41;2.50;66.00
74511;DHT22;62991;50.040;18.400;2024-01-30T00:42:42;2.50;66.00
74511;DHT22;62991;50.040;18.400;2024-01-30T00:45:46;2.40;66.20
74511;DHT22;62991;50.040;18.400;2024-01-30T00:48:47;2.40;66.10
74511;DHT22;62991;50.040;18.400;2024-01-30T00:51:47;2.40;66.30
74511;DHT22;62991;50.040;18.400;2024-01-30T00:54:48;2.40;66.20
74511;DHT22;62991;50.040;18.400;2024-01-30T00:57:49;2.50;66.10
74511;DHT22;62991;50.040;18.400;2024-01-30T01:00:49;2.50;66.00
74511;DHT22;62991;50.040;18.400;2024-01-30T01:03:50;2.60;65.90
74511;DHT22;62991;50.040;18.400;2024-01-30T01:06:51;2.60;65.70
74511;DHT22;62991;50.040;18.400;2024-01-30T01:09:51;2.50;66.00
74511;DHT22;62991;50.040;18.400;2024-01-30T01:12:52;2.50;65.70
74511;DHT22;62991;50.040;18.400;2024-01-30T01:15:53;2.50;66.00
74511;DHT22;62991;50.040;18.400;2024-01-30T01:18:53;2.50;65.70
74511;DHT22;62991;50.040;18.400;2024-01-30T01:21:54;2.50;66.10
74511;DHT22;62991;50.040;18.400;2024-01-30T01:24:55;2.50;66.00
74511;DHT22;62991;50.040;18.400;2024-01-30T01:27:55;2.40;65.90
74511;DHT22;62991;50.040;18.400;2024-01-30T01:30:56;2.40;66.10
74511;DHT22;62991;50.040;18.400;2024-01-30T01:34:01;2.40;66.20
74511;DHT22;62991;50.040;18.400;2024-01-30T01:37:02;2.40;66.30
74511;DHT22;62991;50.040;18.400;2024-01-30T01:40:03;2.30;66.70
74511;DHT22;62991;50.040;18.400;2024-01-30T01:43:04;2.40;66.40
74511;DHT22;62991;50.040;18.400;2024-01-30T01:46:06;2.20;66.70
74511;DHT22;62991;50.040;18.400;2024-01-30T01:49:07;2.40;66.40
74511;DHT22;62991;50.040;18.400;2024-01-30T01:52:09;2.40;66.30
74511;DHT22;62991;50.040;18.400;2024-01-30T01:55:11;2.40;66.40
74511;DHT22;62991;50.040;18.400;2024-01-30T01:58:14;2.30;66.20
74511;DHT22;62991;50.040;18.400;2024-01-30T02:01:17;2.40;66.60
74511;DHT22;62991;50.040;18.400;2024-01-30T02:04:19;2.30;66.20
74511;DHT22;62991;50.040;18.400;2024-01-30T02:07:20;2.30;66.40
74511;DHT22;62991;50.040;18.400;2024-01-30T02:10:21;2.30;66.50
74511;DHT22;62991;50.040;18.400;2024-01-30T02:13:21;2.20;66.40
74511;DHT22;62991;50.040;18.400;2024-01-30T02:16:22;2.10;66.80
74511;DHT22;62991;50.040;18.400;2024-01-30T02:19:23;2.10;66.80
74511;DHT22;62991;50.040;18.400;2024-01-30T02:22:24;2.10;66.60
74511;DHT22;62991;50.040;18.400;2024-01-30T02:25:40;2.10;66.80
74511;DHT22;62991;50.040;18.400;2024-01-30T02:28:46;2.00;66.90
74511;DHT22;62991;50.040;18.400;2024-01-30T02:31:47;2.00;67.20
74511;DHT22;62991;50.040;18.400;2024-01-30T02:34:48;2.10;67.10
74511;DHT22;62991;50.040;18.400;2024-01-30T02:37:48;2.10;66.80
74511;DHT22;62991;50.040;18.400;2024-01-30T02:40:49;2.10;66.70
74511;DHT22;62991;50.040;18.400;2024-01-30T02:43:50;2.10;66.50
74511;DHT22;62991;50.040;18.400;2024-01-30T02:46:51;2.00;66.90
74511;DHT22;62991;50.040;18.400;2024-01-30T02:49:51;2.00;66.80
74511;DHT22;62991;50.040;18.400;2024-01-30T02:52:52;1.90;67.00
74511;DHT22;62991;50.040;18.400;2024-01-30T02:55:53;1.90;66.90
74511;DHT22;62991;50.040;18.400;2024-01-30T02:58:53;2.00;66.50
74511;DHT22;62991;50.040;18.400;2024-01-30T03:01:54;2.10;66.20
74511;DHT22;62991;50.040;18.400;2024-01-30T03:04:55;2.00;66.40
74511;DHT22;62991;50.040;18.400;2024-01-30T03:07:55;2.00;66.30
74511;DHT22;62991;50.040;18.400;2024-01-30T03:10:56;2.10;65.70
74511;DHT22;62991;50.040;18.400;2024-01-30T03:13:57;2.00;65.70
74511;DHT22;62991;50.040;18.400;2024-01-30T03:16:58;2.00;65.80
74511;DHT22;62991;50.040;18.400;2024-01-30T03:19:58;2.10;65.50
74511;DHT22;62991;50.040;18.400;2024-01-30T03:23:00;2.00;65.30
74511;DHT22;62991;50.040;18.400;2024-01-30T03:26:01;2.10;65.30
74511;DHT22;62991;50.040;18.400;2024-01-30T03:29:01;2.10;65.20
74511;DHT22;62991;50.040;18.400;2024-01-30T03:32:02;2.10;65.00
74511;DHT22;62991;50.040;18.400;2024-01-30T03:35:04;2.10;65.00
74511;DHT22;62991;50.040;18.400;2024-01-30T03:38:05;2.00;65.30
74511;DHT22;62991;50.040;18.400;2024-01-30T03:41:08;2.00;65.10
74511;DHT22;62991;50.040;18.400;2024-01-30T03:44:09;2.00;65.00
74511;DHT22;62991;50.040;18.400;2024-01-30T03:47:09;1.90;65.00
74511;DHT22;62991;50.040;18.400;2024-01-30T03:50:10;1.90;65.10
74511;DHT22;62991;50.040;18.400;2024-01-30T03:53:11;1.90;65.10
74511;DHT22;62991;50.040;18.400;2024-01-30T03:56:12;2.00;64.60
74511;DHT22;62991;50.040;18.400;2024-01-30T03:59:16;2.10;64.40
74511;DHT22;62991;50.040;18.400;2024-01-30T04:02:18;2.00;64.40
74511;DHT22;62991;50.040;18.400;2024-01-30T04:05:18;2.00;64.70
74511;DHT22;62991;50.040;18.400;2024-01-30T04:08:19;2.00;64.50
74511;DHT22;62991;50.040;18.400;2024-01-30T04:11:20;2.00;64.30
74511;DHT22;62991;50.040;18.400;2024-01-30T04:14:21;2.00;64.40
74511;DHT22;62991;50.040;18.400;2024-01-30T04:17:22;1.90;64.40
74511;DHT22;62991;50.040;18.400;2024-01-30T04:20:22;1.70;65.00
74511;DHT22;62991;50.040;18.400;2024-01-30T04:23:23;1.90;64.70
74511;DHT22;62991;50.040;18.400;2024-01-30T04:26:24;1.80;64.90
74511;DHT22;62991;50.040;18.400;2024-01-30T04:29:24;1.90;64.70
74511;DHT22;62991;50.040;18.400;2024-01-30T04:32:25;2.00;64.40
74511;DHT22;62991;50.040;18.400;2024-01-30T04:35:26;2.00;64.30
74511;DHT22;62991;50.040;18.400;2024-01-30T04:38:26;2.00;64.30
74511;DHT22;62991;50.040;18.400;2024-01-30T04:41:27;2.00;64.20
74511;DHT22;62991;50.040;18.400;2024-01-30T04:44:31;1.90;64.20
74511;DHT22;62991;50.040;18.400;2024-01-30T04:47:32;2.00;64.40
74511;DHT22;62991;50.040;18.400;2024-01-30T04:50:33;2.00;64.50
74511;DHT22;62991;50.040;18.400;2024-01-30T04:53:33;2.00;64.50
74511;DHT22;62991;50.040;18.400;2024-01-30T04:56:34;2.00;64.40
74511;DHT22;62991;50.040;18.400;2024-01-30T04:59:36;1.90;64.50
74511;DHT22;62991;50.040;18.400;2024-01-30T05:02:37;2.00;64.40
74511;DHT22;62991;50.040;18.400;2024-01-30T05:05:37;2.00;64.50
74511;DHT22;62991;50.040;18.400;2024-01-30T05:08:38;1.80;64.90
74511;DHT22;62991;50.040;18.400;2024-01-30T05:11:39;1.70;65.40
74511;DHT22;62991;50.040;18.400;2024-01-30T05:14:40;1.70;65.50
74511;DHT22;62991;50.040;18.400;2024-01-30T05:17:41;1.80;65.20
74511;DHT22;62991;50.040;18.400;2024-01-30T05:20:42;1.80;65.30
74511;DHT22;62991;50.040;18.400;2024-01-30T05:23:42;1.80;65.10
74511;DHT22;62991;50.040;18.400;2024-01-30T05:26:43;1.80;65.30
74511;DHT22;62991;50.040;18.400;2024-01-30T05:29:44;1.80;65.10
74511;DHT22;62991;50.040;18.400;2024-01-30T05:32:44;1.80;65.10
74511;DHT22;62991;50.040;18.400;2024-01-30T05:35:45;1.90;65.10
74511;DHT22;62991;50.040;18.400;2024-01-30T05:38:46;1.80;65.10
74511;DHT22;62991;50.040;18.400;2024-01-30T05:41:46;1.80;65.40
74511;DHT22;62991;50.040;18.400;2024-01-30T05:44:47;1.80;65.40
74511;DHT22;62991;50.040;18.400;2024-01-30T05:47:48;1.80;65.30
74511;DHT22;62991;50.040;18.400;2024-01-30T05:50:48;1.70;66.00
74511;DHT22;62991;50.040;18.400;2024-01-30T05:53:49;1.60;66.20
74511;DHT22;62991;50.040;18.400;2024-01-30T05:56:50;1.60;66.10
74511;DHT22;62991;50.040;18.400;2024-01-30T05:59:50;1.60;66.40
74511;DHT22;62991;50.040;18.400;2024-01-30T06:02:52;1.60;66.40
74511;DHT22;62991;50.040;18.400;2024-01-30T06:05:53;1.60;66.20
74511;DHT22;62991;50.040;18.400;2024-01-30T06:08:53;1.70;66.00
74511;DHT22;62991;50.040;18.400;2024-01-30T06:11:56;1.70;66.10
74511;DHT22;62991;50.040;18.400;2024-01-30T06:14:57;1.60;66.10
74511;DHT22;62991;50.040;18.400;2024-01-30T06:17:58;1.60;66.40
74511;DHT22;62991;50.040;18.400;2024-01-30T06:20:59;1.60;66.50
74511;DHT22;62991;50.040;18.400;2024-01-30T06:23:59;1.60;66.40
74511;DHT22;62991;50.040;18.400;2024-01-30T06:27:00;1.70;66.10
74511;DHT22;62991;50.040;18.400;2024-01-30T06:30:01;1.70;66.00
74511;DHT22;62991;50.040;18.400;2024-01-30T06:33:02;1.70;66.00
74511;DHT22;62991;50.040;18.400;2024-01-30T06:36:03;1.80;65.80
74511;DHT22;62991;50.040;18.400;2024-01-30T06:39:04;1.80;65.80
74511;DHT22;62991;50.040;18.400;2024-01-30T06:42:04;1.80;65.90
74511;DHT22;62991;50.040;18.400;2024-01-30T06:45:06;1.80;65.70
74511;DHT22;62991;50.040;18.400;2024-01-30T06:48:07;1.80;65.60
74511;DHT22;62991;50.040;18.400;2024-01-30T06:51:08;1.80;65.60
74511;DHT22;62991;50.040;18.400;2024-01-30T06:54:08;1.80;65.70
74511;DHT22;62991;50.040;18.400;2024-01-30T06:57:09;1.90;65.80
74511;DHT22;62991;50.040;18.400;2024-01-30T07:00:13;2.00;65.30
74511;DHT22;62991;50.040;18.400;2024-01-30T07:03:14;2.00;65.40
74511;DHT22;62991;50.040;18.400;2024-01-30T07:06:15;2.10;64.90
74511;DHT22;62991;50.040;18.400;2024-01-30T07:09:15;2.10;65.00
74511;DHT22;62991;50.040;18.400;2024-01-30T07:12:16;2.20;64.80
74511;DHT22;62991;50.040;18.400;2024-01-30T07:15:17;2.20;64.40
74511;DHT22;62991;50.040;18.400;2024-01-30T07:18:20;2.20;64.60
74511;DHT22;62991;50.040;18.400;2024-01-30T07:21:21;2.40;64.30
74511;DHT22;62991;50.040;18.400;2024-01-30T07:24:25;2.40;64.40
74511;DHT22;62991;50.040;18.400;2024-01-30T07:27:26;2.30;64.50
74511;DHT22;62991;50.040;18.400;2024-01-30T07:30:26;2.40;64.20
74511;DHT22;62991;50.040;18.400;2024-01-30T07:33:27;2.50;64.20
74511;DHT22;62991;50.040;18.400;2024-01-30T07:36:28;2.60;63.80
74511;DHT22;62991;50.040;18.400;2024-01-30T07:39:29;2.60;63.70
74511;DHT22;62991;50.040;18.400;2024-01-30T07:42:29;2.70;63.50
74511;DHT22;62991;50.040;18.400;2024-01-30T07:45:30;2.60;63.50
74511;DHT22;62991;50.040;18.400;2024-01-30T07:48:34;2.60;63.70
74511;DHT22;62991;50.040;18.400;2024-01-30T07:51:34;2.70;63.70
74511;DHT22;62991;50.040;18.400;2024-01-30T07:54:41;2.70;63.50
74511;DHT22;62991;50.040;18.400;2024-01-30T07:57:42;2.80;63.30
74511;DHT22;62991;50.040;18.400;2024-01-30T08:00:43;2.80;63.20
74511;DHT22;62991;50.040;18.400;2024-01-30T08:03:43;2.70;63.50
74511;DHT22;62991;50.040;18.400;2024-01-30T08:06:44;2.90;63.20
74511;DHT22;62991;50.040;18.400;2024-01-30T08:09:45;3.10;62.60
74511;DHT22;62991;50.040;18.400;2024-01-30T08:12:46;2.90;62.90
74511;DHT22;62991;50.040;18.400;2024-01-30T08:15:46;3.00;63.20
74511;DHT22;62991;50.040;18.400;2024-01-30T08:18:47;3.10;62.80
74511;DHT22;62991;50.040;18.400;2024-01-30T08:21:48;3.10;63.00
74511;DHT22;62991;50.040;18.400;2024-01-30T08:24:48;3.10;62.40
74511;DHT22;62991;50.040;18.400;2024-01-30T08:27:49;3.20;62.80
74511;DHT22;62991;50.040;18.400;2024-01-30T08:30:50;3.20;62.10
74511;DHT22;62991;50.040;18.400;2024-01-30T08:33:51;3.10;62.30
74511;DHT22;62991;50.040;18.400;2024-01-30T08:36:51;3.20;62.60
74511;DHT22;62991;50.040;18.400;2024-01-30T08:39:52;3.20;62.80
74511;DHT22;62991;50.040;18.400;2024-01-30T08:42:54;3.40;62.00
74511;DHT22;62991;50.040;18.400;2024-01-30T08:45:55;3.40;62.00
74511;DHT22;62991;50.040;18.400;2024-01-30T08:48:57;3.60;61.60
74511;DHT22;62991;50.040;18.400;2024-01-30T08:51:58;3.50;61.50
74511;DHT22;62991;50.040;18.400;2024-01-30T08:54:58;3.60;61.90
74511;DHT22;62991;50.040;18.400;2024-01-30T08:57:59;3.60;61.30
74511;DHT22;62991;50.040;18.400;2024-01-30T09:01:00;3.40;61.80
74511;DHT22;62991;50.040;18.400;2024-01-30T09:04:00;3.50;61.80
74511;DHT22;62991;50.040;18.400;2024-01-30T09:07:01;3.70;61.50
74511;DHT22;62991;50.040;18.400;2024-01-30T09:10:02;3.70;61.60
74511;DHT22;62991;50.040;18.400;2024-01-30T09:13:03;3.90;61.30
74511;DHT22;62991;50.040;18.400;2024-01-30T09:16:04;3.80;61.30
74511;DHT22;62991;50.040;18.400;2024-01-30T09:19:05;3.90;61.30
74511;DHT22;62991;50.040;18.400;2024-01-30T09:22:06;4.00;60.80
74511;DHT22;62991;50.040;18.400;2024-01-30T09:25:07;4.00;60.80
74511;DHT22;62991;50.040;18.400;2024-01-30T09:28:07;4.10;60.50
74511;DHT22;62991;50.040;18.400;2024-01-30T09:31:12;4.30;60.10
74511;DHT22;62991;50.040;18.400;2024-01-30T09:34:13;4.20;60.20
74511;DHT22;62991;50.040;18.400;2024-01-30T09:37:14;4.20;60.80
74511;DHT22;62991;50.040;18.400;2024-01-30T09:40:17;4.20;60.00
74511;DHT22;62991;50.040;18.400;2024-01-30T09:43:22;4.20;60.40
74511;DHT22;62991;50.040;18.400;2024-01-30T09:46:26;4.30;60.10
74511;DHT22;62991;50.040;18.400;2024-01-30T09:49:28;4.50;60.10
74511;DHT22;62991;50.040;18.400;2024-01-30T09:52:29;4.60;59.50
74511;DHT22;62991;50.040;18.400;2024-01-30T09:55:30;4.60;59.80
74511;DHT22;62991;50.040;18.400;2024-01-30T09:58:31;4.60;58.80
74511;DHT22;62991;50.040;18.400;2024-01-30T10:01:31;4.50;59.50
74511;DHT22;62991;50.040;18.400;2024-01-30T10:04:34;4.60;60.10
74511;DHT22;62991;50.040;18.400;2024-01-30T10:07:35;4.90;58.90
74511;DHT22;62991;50.040;18.400;2024-01-30T10:10:35;4.80;59.40
74511;DHT22;62991;50.040;18.400;2024-01-30T10:13:36;5.00;58.40
74511;DHT22;62991;50.040;18.400;2024-01-30T10:16:39;5.10;57.90
74511;DHT22;62991;50.040;18.400;2024-01-30T10:19:40;4.90;58.40
74511;DHT22;62991;50.040;18.400;2024-01-30T10:22:41;5.00;58.30
74511;DHT22;62991;50.040;18.400;2024-01-30T10:25:46;5.10;58.20
74511;DHT22;62991;50.040;18.400;2024-01-30T10:28:48;5.30;57.50
74511;DHT22;62991;50.040;18.400;2024-01-30T10:32:01;5.40;57.00
74511;DHT22;62991;50.040;18.400;2024-01-30T10:35:03;5.50;57.00
74511;DHT22;62991;50.040;18.400;2024-01-30T10:38:05;5.50;56.50
74511;DHT22;62991;50.040;18.400;2024-01-30T10:41:08;5.70;56.30
74511;DHT22;62991;50.040;18.400;2024-01-30T10:44:18;5.70;56.00
74511;DHT22;62991;50.040;18.400;2024-01-30T10:47:27;5.70;56.20
74511;DHT22;62991;50.040;18.400;2024-01-30T10:50:29;5.60;56.30
74511;DHT22;62991;50.040;18.400;2024-01-30T10:53:31;5.90;55.90
74511;DHT22;62991;50.040;18.400;2024-01-30T10:56:32;6.00;55.80
74511;DHT22;62991;50.040;18.400;2024-01-30T10:59:34;5.90;55.70
74511;DHT22;62991;50.040;18.400;2024-01-30T11:02:35;6.40;54.70
74511;DHT22;62991;50.040;18.400;2024-01-30T11:05:40;6.20;54.70
74511;DHT22;62991;50.040;18.400;2024-01-30T11:08:40;6.10;55.00
74511;DHT22;62991;50.040;18.400;2024-01-30T11:12:11;6.20;55.10
74511;DHT22;62991;50.040;18.400;2024-01-30T11:15:14;6.70;54.80
74511;DHT22;62991;50.040;18.400;2024-01-30T11:18:25;7.10;53.40
74511;DHT22;62991;50.040;18.400;2024-01-30T11:21:26;7.30;52.80
74511;DHT22;62991;50.040;18.400;2024-01-30T11:24:27;6.90;53.00
74511;DHT22;62991;50.040;18.400;2024-01-30T11:27:28;7.00;53.10
74511;DHT22;62991;50.040;18.400;2024-01-30T11:30:31;7.10;53.60
74511;DHT22;62991;50.040;18.400;2024-01-30T11:33:32;7.50;52.40
74511;DHT22;62991;50.040;18.400;2024-01-30T11:36:34;7.60;51.70
74511;DHT22;62991;50.040;18.400;2024-01-30T11:39:37;7.50;51.50
74511;DHT22;62991;50.040;18.400;2024-01-30T11:42:38;7.70;51.80
74511;DHT22;62991;50.040;18.400;2024-01-30T11:45:40;8.00;51.00
74511;DHT22;62991;50.040;18.400;2024-01-30T11:48:41;8.00;50.70
74511;DHT22;62991;50.040;18.400;2024-01-30T11:51:42;8.30;50.50
74511;DHT22;62991;50.040;18.400;2024-01-30T11:54:43;9.40;49.00
74511;DHT22;62991;50.040;18.400;2024-01-30T11:57:43;14.70;39.40
74511;DHT22;62991;50.040;18.400;2024-01-30T12:00:56;17.80;34.40
74511;DHT22;62991;50.040;18.400;2024-01-30T12:03:57;19.70;32.10
74511;DHT22;62991;50.040;18.400;2024-01-30T12:06:58;19.90;31.40
74511;DHT22;62991;50.040;18.400;2024-01-30T12:09:59;22.40;28.90
74511;DHT22;62991;50.040;18.400;2024-01-30T12:13:01;24.00;27.40
74511;DHT22;62991;50.040;18.400;2024-01-30T12:16:02;26.30;25.80
74511;DHT22;62991;50.040;18.400;2024-01-30T12:19:03;29.20;23.50
74511;DHT22;62991;50.040;18.400;2024-01-30T12:22:04;27.10;24.10
74511;DHT22;62991;50.040;18.400;2024-01-30T12:25:12;29.30;23.10
74511;DHT22;62991;50.040;18.400;2024-01-30T12:28:13;27.50;23.90
74511;DHT22;62991;50.040;18.400;2024-01-30T12:31:14;26.50;24.80
74511;DHT22;62991;50.040;18.400;2024-01-30T12:34:15;28.60;23.50
74511;DHT22;62991;50.040;18.400;2024-01-30T12:37:21;31.00;21.90
74511;DHT22;62991;50.040;18.400;2024-01-30T12:40:23;30.80;21.80
74511;DHT22;62991;50.040;18.400;2024-01-30T12:43:25;29.40;22.80
74511;DHT22;62991;50.040;18.400;2024-01-30T12:46:28;27.00;23.80
74511;DHT22;62991;50.040;18.400;2024-01-30T12:49:29;28.30;23.20
74511;DHT22;62991;50.040;18.400;2024-01-30T12:52:30;29.70;22.30
74511;DHT22;62991;50.040;18.400;2024-01-30T12:55:31;28.30;23.20
74511;DHT22;62991;50.040;18.400;2024-01-30T12:58:31;26.40;24.40
74511;DHT22;62991;50.040;18.400;2024-01-30T13:01:32;25.90;24.90
74511;DHT22;62991;50.040;18.400;2024-01-30T13:04:33;27.50;24.20
74511;DHT22;62991;50.040;18.400;2024-01-30T13:07:38;26.00;24.50
74511;DHT22;62991;50.040;18.400;2024-01-30T13:10:43;26.30;24.70
74511;DHT22;62991;50.040;18.400;2024-01-30T13:13:44;26.30;24.60
74511;DHT22;62991;50.040;18.400;2024-01-30T13:16:45;26.10;25.00
74511;DHT22;62991;50.040;18.400;2024-01-30T13:19:45;25.50;25.30
74511;DHT22;62991;50.040;18.400;2024-01-30T13:22:48;25.60;25.00
74511;DHT22;62991;50.040;18.400;2024-01-30T13:25:50;24.80;25.70
74511;DHT22;62991;50.040;18.400;2024-01-30T13:28:50;25.00;25.60
74511;DHT22;62991;50.040;18.400;2024-01-30T13:31:51;21.70;27.10
74511;DHT22;62991;50.040;18.400;2024-01-30T13:34:52;17.70;31.80
74511;DHT22;62991;50.040;18.400;2024-01-30T13:37:53;18.60;31.40
74511;DHT22;62991;50.040;18.400;2024-01-30T13:40:53;18.70;30.90
74511;DHT22;62991;50.040;18.400;2024-01-30T13:43:54;16.50;33.10
74511;DHT22;62991;50.040;18.400;2024-01-30T13:46:55;15.60;35.00
74511;DHT22;62991;50.040;18.400;2024-01-30T13:49:56;13.70;37.50
74511;DHT22;62991;50.040;18.400;2024-01-30T13:52:56;12.80;39.00
74511;DHT22;62991;50.040;18.400;2024-01-30T13:55:57;12.30;40.20
74511;DHT22;62991;50.040;18.400;2024-01-30T13:58:58;12.20;40.20
74511;DHT22;62991;50.040;18.400;2024-01-30T14:01:58;11.50;41.50
74511;DHT22;62991;50.040;18.400;2024-01-30T14:04:59;12.00;41.30
74511;DHT22;62991;50.040;18.400;2024-01-30T14:08:00;11.90;41.10
74511;DHT22;62991;50.040;18.400;2024-01-30T14:11:01;12.30;40.70
74511;DHT22;62991;50.040;18.400;2024-01-30T14:14:01;11.90;41.10
74511;DHT22;62991;50.040;18.400;2024-01-30T14:17:03;11.90;41.20
74511;DHT22;62991;50.040;18.400;2024-01-30T14:20:04;12.40;40.70
74511;DHT22;62991;50.040;18.400;2024-01-30T14:23:05;12.20;40.70
74511;DHT22;62991;50.040;18.400;2024-01-30T14:26:06;12.20;40.90
74511;DHT22;62991;50.040;18.400;2024-01-30T14:29:06;11.50;42.00
74511;DHT22;62991;50.040;18.400;2024-01-30T14:32:07;10.50;43.90
74511;DHT22;62991;50.040;18.400;2024-01-30T14:35:08;10.40;43.90
74511;DHT22;62991;50.040;18.400;2024-01-30T14:38:09;9.90;45.10
74511;DHT22;62991;50.040;18.400;2024-01-30T14:41:10;9.80;45.90
74511;DHT22;62991;50.040;18.400;2024-01-30T14:44:10;9.40;46.30
74511;DHT22;62991;50.040;18.400;2024-01-30T14:47:11;9.30;47.30
74511;DHT22;62991;50.040;18.400;2024-01-30T14:50:13;9.40;47.00
74511;DHT22;62991;50.040;18.400;2024-01-30T14:53:17;9.50;47.00
74511;DHT22;62991;50.040;18.400;2024-01-30T14:56:18;9.30;47.30
74511;DHT22;62991;50.040;18.400;2024-01-30T14:59:19;9.20;47.80
74511;DHT22;62991;50.040;18.400;2024-01-30T15:02:19;8.90;48.30
74511;DHT22;62991;50.040;18.400;2024-01-30T15:05:20;8.80;48.70
74511;DHT22;62991;50.040;18.400;2024-01-30T15:08:21;8.30;49.40
74511;DHT22;62991;50.040;18.400;2024-01-30T15:11:22;8.30;49.70
74511;DHT22;62991;50.040;18.400;2024-01-30T15:14:23;8.00;50.50
74511;DHT22;62991;50.040;18.400;2024-01-30T15:17:24;8.00;50.80
74511;DHT22;62991;50.040;18.400;2024-01-30T15:20:25;7.60;51.30
74511;DHT22;62991;50.040;18.400;2024-01-30T15:23:27;7.30;52.50
74511;DHT22;62991;50.040;18.400;2024-01-30T15:26:28;6.80;53.60
74511;DHT22;62991;50.040;18.400;2024-01-30T15:29:29;6.50;54.70
74511;DHT22;62991;50.040;18.400;2024-01-30T15:32:29;6.40;54.90
74511;DHT22;62991;50.040;18.400;2024-01-30T15:35:30;6.20;55.40
74511;DHT22;62991;50.040;18.400;2024-01-30T15:38:31;5.80;56.20
74511;DHT22;62991;50.040;18.400;2024-01-30T15:41:31;5.60;57.00
74511;DHT22;62991;50.040;18.400;2024-01-30T15:44:32;5.50;57.60
74511;DHT22;62991;50.040;18.400;2024-01-30T15:47:33;5.30;57.80
74511;DHT22;62991;50.040;18.400;2024-01-30T15:50:33;5.20;58.10
74511;DHT22;62991;50.040;18.400;2024-01-30T15:53:34;5.00;58.80
74511;DHT22;62991;50.040;18.400;2024-01-30T15:56:35;5.00;58.80
74511;DHT22;62991;50.040;18.400;2024-01-30T15:59:36;4.90;59.00
74511;DHT22;62991;50.040;18.400;2024-01-30T16:02:37;4.90;59.00
74511;DHT22;62991;50.040;18.400;2024-01-30T16:05:38;4.80;59.20
74511;DHT22;62991;50.040;18.400;2024-01-30T16:08:40;4.60;59.60
74511;DHT22;62991;50.040;18.400;2024-01-30T16:11:42;4.60;59.80
74511;DHT22;62991;50.040;18.400;2024-01-30T16:14:43;4.30;60.40
74511;DHT22;62991;50.040;18.400;2024-01-30T16:17:44;4.40;60.40
74511;DHT22;62991;50.040;18.400;2024-01-30T16:20:44;4.30;60.90
74511;DHT22;62991;50.040;18.400;2024-01-30T16:23:45;4.20;61.20
74511;DHT22;62991;50.040;18.400;2024-01-30T16:26:46;4.20;61.10
74511;DHT22;62991;50.040;18.400;2024-01-30T16:29:47;4.10;61.00
74511;DHT22;62991;50.040;18.400;2024-01-30T16:32:48;4.10;61.10
74511;DHT22;62991;50.040;18.400;2024-01-30T16:35:48;4.00;61.50
74511;DHT22;62991;50.040;18.400;2024-01-30T16:38:49;3.90;61.70
74511;DHT22;62991;50.040;18.400;2024-01-30T16:41:50;3.90;61.60
74511;DHT22;62991;50.040;18.400;2024-01-30T16:44:50;3.80;61.80
74511;DHT22;62991;50.040;18.400;2024-01-30T16:47:51;3.80;61.70
74511;DHT22;62991;50.040;18.400;2024-01-30T16:50:52;3.70;61.60
74511;DHT22;62991;50.040;18.400;2024-01-30T16:53:52;3.60;61.90
74511;DHT22;62991;50.040;18.400;2024-01-30T16:56:53;3.60;62.10
74511;DHT22;62991;50.040;18.400;2024-01-30T16:59:54;3.60;61.90
74511;DHT22;62991;50.040;18.400;2024-01-30T17:02:54;3.60;62.00
74511;DHT22;62991;50.040;18.400;2024-01-30T17:05:55;3.60;61.80
74511;DHT22;62991;50.040;18.400;2024-01-30T17:08:58;3.60;61.70
74511;DHT22;62991;50.040;18.400;2024-01-30T17:11:59;3.60;61.60
74511;DHT22;62991;50.040;18.400;2024-01-30T17:15:00;3.50;61.30
74511;DHT22;62991;50.040;18.400;2024-01-30T17:18:01;3.50;61.10
74511;DHT22;62991;50.040;18.400;2024-01-30T17:21:02;3.50;60.90
74511;DHT22;62991;50.040;18.400;2024-01-30T17:24:03;3.50;60.80
74511;DHT22;62991;50.040;18.400;2024-01-30T17:27:04;3.40;60.60
74511;DHT22;62991;50.040;18.400;2024-01-30T17:30:05;3.50;60.20
74511;DHT22;62991;50.040;18.400;2024-01-30T17:33:06;3.50;60.20
74511;DHT22;62991;50.040;18.400;2024-01-30T17:36:07;3.50;59.70
74511;DHT22;62991;50.040;18.400;2024-01-30T17:39:09;3.50;59.60
74511;DHT22;62991;50.040;18.400;2024-01-30T17:42:10;3.40;59.80
74511;DHT22;62991;50.040;18.400;2024-01-30T17:45:10;3.30;60.00
74511;DHT22;62991;50.040;18.400;2024-01-30T17:48:11;3.30;60.10
74511;DHT22;62991;50.040;18.400;2024-01-30T17:51:12;3.30;60.40
74511;DHT22;62991;50.040;18.400;2024-01-30T17:54:13;3.30;60.10
74511;DHT22;62991;50.040;18.400;2024-01-30T17:57:13;3.30;60.10
74511;DHT22;62991;50.040;18.400;2024-01-30T18:00:14;3.20;60.30
74511;DHT22;62991;50.040;18.400;2024-01-30T18:03:15;3.20;60.00
74511;DHT22;62991;50.040;18.400;2024-01-30T18:06:16;3.20;60.20
74511;DHT22;62991;50.040;18.400;2024-01-30T18:09:16;3.20;60.30
74511;DHT22;62991;50.040;18.400;2024-01-30T18:12:17;3.10;60.10
74511;DHT22;62991;50.040;18.400;2024-01-30T18:15:18;3.20;59.70
74511;DHT22;62991;50.040;18.400;2024-01-30T18:18:18;3.10;60.00
74511;DHT22;62991;50.040;18.400;2024-01-30T18:21:19;3.10;59.80
74511;DHT22;62991;50.040;18.400;2024-01-30T18:24:20;3.10;60.00
74511;DHT22;62991;50.040;18.400;2024-01-30T18:27:22;3.10;59.70
74511;DHT22;62991;50.040;18.400;2024-01-30T18:30:23;3.00;59.50
74511;DHT22;62991;50.040;18.400;2024-01-30T18:33:23;3.10;59.40
74511;DHT22;62991;50.040;18.400;2024-01-30T18:36:24;3.10;59.20
74511;DHT22;62991;50.040;18.400;2024-01-30T18:39:25;3.10;58.90
74511;DHT22;62991;50.040;18.400;2024-01-30T18:42:26;3.00;59.30
74511;DHT22;62991;50.040;18.400;2024-01-30T18:45:27;3.00;59.00
74511;DHT22;62991;50.040;18.400;2024-01-30T18:48:27;3.10;58.90
74511;DHT22;62991;50.040;18.400;2024-01-30T18:51:28;3.00;59.00
74511;DHT22;62991;50.040;18.400;2024-01-30T18:54:30;2.90;59.30
74511;DHT22;62991;50.040;18.400;2024-01-30T18:57:31;2.90;59.10
74511;DHT22;62991;50.040;18.400;2024-01-30T19:00:33;2.90;58.80
74511;DHT22;62991;50.040;18.400;2024-01-30T19:03:36;2.90;58.70